sensor_id;sensor_type;location;lat;lon;timestamp;P1;durP1;ratioP1;P2;durP2;ratioP2
80127;SDS011;69440;52.118;5.408;2023-08-17T00:01:33;5.63;;;2.00;;
80127;SDS011;69440;52.118;5.408;2023-08-17T00:03:59;9.90;;;2.25;;
80127;SDS011;69440;52.118;5.408;2023-08-17T00:06:26;3.05;;;2.08;;
80127;SDS011;69440;52.118;5.408;2023-08-17T00:08:52;5.25;;;1.95;;
80127;SDS011;69440;52.118;5.408;2023-08-17T00:11:19;6.20;;;2.10;;
80127;SDS011;69440;52.118;5.408;2023-08-17T00:13:45;5.50;;;1.95;;
80127;SDS011;69440;52.118;5.408;2023-08-17T00:16:12;5.05;;;2.30;;
80127;SDS011;69440;52.118;5.408;2023-08-17T00:18:39;7.18;;;2.03;;
80127;SDS011;69440;52.118;5.408;2023-08-17T00:21:06;7.07;;;2.90;;
80127;SDS011;69440;52.118;5.408;2023-08-17T00:23:32;5.22;;;2.22;;
80127;SDS011;69440;52.118;5.408;2023-08-17T00:25:58;4.28;;;2.00;;
80127;SDS011;69440;52.118;5.408;2023-08-17T00:28:25;5.53;;;2.00;;
80127;SDS011;69440;52.118;5.408;2023-08-17T00:30:52;4.10;;;1.98;;
80127;SDS011;69440;52.118;5.408;2023-08-17T00:33:18;10.23;;;2.67;;
80127;SDS011;69440;52.118;5.408;2023-08-17T00:35:45;4.40;;;2.17;;
80127;SDS011;69440;52.118;5.408;2023-08-17T00:38:12;6.10;;;2.13;;
80127;SDS011;69440;52.118;5.408;2023-08-17T00:40:38;6.68;;;1.98;;
80127;SDS011;69440;52.118;5.408;2023-08-17T00:43:05;4.82;;;1.80;;
80127;SDS011;69440;52.118;5.408;2023-08-17T00:45:31;4.65;;;1.83;;
80127;SDS011;69440;52.118;5.408;2023-08-17T00:47:58;4.90;;;2.28;;
80127;SDS011;69440;52.118;5.408;2023-08-17T00:50:25;4.22;;;1.75;;
80127;SDS011;69440;52.118;5.408;2023-08-17T00:52:53;6.60;;;2.28;;
80127;SDS011;69440;52.118;5.408;2023-08-17T00:55:22;4.07;;;1.90;;
80127;SDS011;69440;52.118;5.408;2023-08-17T00:57:48;6.03;;;2.13;;
80127;SDS011;69440;52.118;5.408;2023-08-17T01:00:15;3.33;;;1.70;;
80127;SDS011;69440;52.118;5.408;2023-08-17T01:02:45;3.95;;;1.60;;
80127;SDS011;69440;52.118;5.408;2023-08-17T01:05:12;4.90;;;2.00;;
80127;SDS011;69440;52.118;5.408;2023-08-17T01:07:39;4.97;;;1.80;;
80127;SDS011;69440;52.118;5.408;2023-08-17T01:10:06;6.85;;;1.67;;
80127;SDS011;69440;52.118;5.408;2023-08-17T01:15:11;4.35;;;2.05;;
80127;SDS011;69440;52.118;5.408;2023-08-17T01:20:14;5.95;;;2.25;;
80127;SDS011;69440;52.118;5.408;2023-08-17T01:22:42;9.07;;;1.83;;
80127;SDS011;69440;52.118;5.408;2023-08-17T01:25:11;5.80;;;1.98;;
80127;SDS011;69440;52.118;5.408;2023-08-17T01:27:43;3.42;;;1.60;;
80127;SDS011;69440;52.118;5.408;2023-08-17T01:30:11;5.85;;;1.80;;
80127;SDS011;69440;52.118;5.408;2023-08-17T01:35:20;3.47;;;1.70;;
80127;SDS011;69440;52.118;5.408;2023-08-17T01:38:02;4.32;;;1.80;;
80127;SDS011;69440;52.118;5.408;2023-08-17T01:43:01;5.88;;;1.90;;
80127;SDS011;69440;52.118;5.408;2023-08-17T01:45:28;5.45;;;2.05;;
80127;SDS011;69440;52.118;5.408;2023-08-17T01:47:55;5.75;;;2.00;;
80127;SDS011;69440;52.118;5.408;2023-08-17T01:50:22;6.60;;;1.63;;
80127;SDS011;69440;52.118;5.408;2023-08-17T01:52:48;5.05;;;1.77;;
80127;SDS011;69440;52.118;5.408;2023-08-17T01:55:17;6.80;;;1.70;;
80127;SDS011;69440;52.118;5.408;2023-08-17T01:57:43;4.45;;;1.92;;
80127;SDS011;69440;52.118;5.408;2023-08-17T02:00:10;9.80;;;2.90;;
80127;SDS011;69440;52.118;5.408;2023-08-17T02:02:37;5.93;;;1.83;;
80127;SDS011;69440;52.118;5.408;2023-08-17T02:05:03;4.07;;;1.85;;
80127;SDS011;69440;52.118;5.408;2023-08-17T02:07:30;6.40;;;1.73;;
80127;SDS011;69440;52.118;5.408;2023-08-17T02:09:57;3.33;;;1.70;;
80127;SDS011;69440;52.118;5.408;2023-08-17T02:12:23;3.97;;;1.83;;
80127;SDS011;69440;52.118;5.408;2023-08-17T02:14:50;4.50;;;1.90;;
80127;SDS011;69440;52.118;5.408;2023-08-17T02:17:16;5.25;;;2.13;;
80127;SDS011;69440;52.118;5.408;2023-08-17T02:19:45;4.35;;;1.92;;
80127;SDS011;69440;52.118;5.408;2023-08-17T02:22:13;3.50;;;2.22;;
80127;SDS011;69440;52.118;5.408;2023-08-17T02:24:40;4.57;;;1.92;;
80127;SDS011;69440;52.118;5.408;2023-08-17T02:27:08;6.78;;;2.65;;
80127;SDS011;69440;52.118;5.408;2023-08-17T02:29:35;7.10;;;2.42;;
80127;SDS011;69440;52.118;5.408;2023-08-17T02:32:02;7.75;;;2.30;;
80127;SDS011;69440;52.118;5.408;2023-08-17T02:34:28;4.97;;;2.15;;
80127;SDS011;69440;52.118;5.408;2023-08-17T02:36:55;5.22;;;2.10;;
80127;SDS011;69440;52.118;5.408;2023-08-17T02:39:21;4.35;;;2.20;;
80127;SDS011;69440;52.118;5.408;2023-08-17T02:41:48;5.60;;;2.10;;
80127;SDS011;69440;52.118;5.408;2023-08-17T02:44:15;6.07;;;2.20;;
80127;SDS011;69440;52.118;5.408;2023-08-17T02:46:42;5.85;;;2.03;;
80127;SDS011;69440;52.118;5.408;2023-08-17T02:49:08;5.25;;;2.40;;
80127;SDS011;69440;52.118;5.408;2023-08-17T02:51:35;5.70;;;2.78;;
80127;SDS011;69440;52.118;5.408;2023-08-17T02:54:01;4.03;;;2.10;;
80127;SDS011;69440;52.118;5.408;2023-08-17T02:56:28;5.85;;;2.20;;
80127;SDS011;69440;52.118;5.408;2023-08-17T02:58:54;7.28;;;2.40;;
80127;SDS011;69440;52.118;5.408;2023-08-17T03:01:21;5.18;;;2.53;;
80127;SDS011;69440;52.118;5.408;2023-08-17T03:03:47;3.95;;;2.22;;
80127;SDS011;69440;52.118;5.408;2023-08-17T03:06:14;5.75;;;2.35;;
80127;SDS011;69440;52.118;5.408;2023-08-17T03:08:40;6.43;;;2.03;;
80127;SDS011;69440;52.118;5.408;2023-08-17T03:11:07;7.57;;;2.20;;
80127;SDS011;69440;52.118;5.408;2023-08-17T03:13:35;4.78;;;2.15;;
80127;SDS011;69440;52.118;5.408;2023-08-17T03:16:02;4.78;;;2.17;;
80127;SDS011;69440;52.118;5.408;2023-08-17T03:18:28;4.63;;;2.00;;
80127;SDS011;69440;52.118;5.408;2023-08-17T03:20:55;5.13;;;1.90;;
80127;SDS011;69440;52.118;5.408;2023-08-17T03:23:21;5.72;;;2.03;;
80127;SDS011;69440;52.118;5.408;2023-08-17T03:25:51;4.22;;;1.92;;
80127;SDS011;69440;52.118;5.408;2023-08-17T03:28:18;5.78;;;2.00;;
80127;SDS011;69440;52.118;5.408;2023-08-17T03:30:45;5.10;;;1.90;;
80127;SDS011;69440;52.118;5.408;2023-08-17T03:33:11;9.20;;;2.30;;
80127;SDS011;69440;52.118;5.408;2023-08-17T03:35:38;5.88;;;2.00;;
80127;SDS011;69440;52.118;5.408;2023-08-17T03:38:04;6.38;;;2.20;;
80127;SDS011;69440;52.118;5.408;2023-08-17T03:40:31;4.93;;;2.35;;
80127;SDS011;69440;52.118;5.408;2023-08-17T03:42:57;6.57;;;3.08;;
80127;SDS011;69440;52.118;5.408;2023-08-17T03:45:24;4.70;;;2.00;;
80127;SDS011;69440;52.118;5.408;2023-08-17T03:47:50;4.90;;;2.00;;
80127;SDS011;69440;52.118;5.408;2023-08-17T03:50:17;5.57;;;1.80;;
80127;SDS011;69440;52.118;5.408;2023-08-17T03:52:43;5.93;;;1.90;;
80127;SDS011;69440;52.118;5.408;2023-08-17T03:55:10;6.15;;;2.20;;
80127;SDS011;69440;52.118;5.408;2023-08-17T03:57:36;6.15;;;1.77;;
80127;SDS011;69440;52.118;5.408;2023-08-17T04:00:05;8.38;;;1.80;;
80127;SDS011;69440;52.118;5.408;2023-08-17T04:02:32;4.65;;;1.95;;
80127;SDS011;69440;52.118;5.408;2023-08-17T04:04:59;5.82;;;2.20;;
80127;SDS011;69440;52.118;5.408;2023-08-17T04:07:26;5.50;;;2.08;;
80127;SDS011;69440;52.118;5.408;2023-08-17T04:09:53;5.35;;;2.10;;
80127;SDS011;69440;52.118;5.408;2023-08-17T04:12:20;3.92;;;1.75;;
80127;SDS011;69440;52.118;5.408;2023-08-17T04:14:46;7.05;;;2.20;;
80127;SDS011;69440;52.118;5.408;2023-08-17T04:17:13;3.67;;;1.77;;
80127;SDS011;69440;52.118;5.408;2023-08-17T04:19:39;6.75;;;1.77;;
80127;SDS011;69440;52.118;5.408;2023-08-17T04:22:06;7.22;;;1.80;;
80127;SDS011;69440;52.118;5.408;2023-08-17T04:24:32;3.83;;;1.85;;
80127;SDS011;69440;52.118;5.408;2023-08-17T04:26:59;4.15;;;1.63;;
80127;SDS011;69440;52.118;5.408;2023-08-17T04:29:26;5.43;;;1.73;;
80127;SDS011;69440;52.118;5.408;2023-08-17T04:31:52;5.13;;;1.80;;
80127;SDS011;69440;52.118;5.408;2023-08-17T04:34:19;5.18;;;1.60;;
80127;SDS011;69440;52.118;5.408;2023-08-17T04:36:46;3.67;;;1.60;;
80127;SDS011;69440;52.118;5.408;2023-08-17T04:39:12;3.72;;;1.58;;
80127;SDS011;69440;52.118;5.408;2023-08-17T04:41:39;6.53;;;1.60;;
80127;SDS011;69440;52.118;5.408;2023-08-17T04:44:05;5.38;;;1.63;;
80127;SDS011;69440;52.118;5.408;2023-08-17T04:46:32;4.85;;;1.50;;
80127;SDS011;69440;52.118;5.408;2023-08-17T04:48:58;4.60;;;1.50;;
80127;SDS011;69440;52.118;5.408;2023-08-17T04:51:25;4.43;;;1.40;;
80127;SDS011;69440;52.118;5.408;2023-08-17T04:53:51;5.40;;;1.63;;
80127;SDS011;69440;52.118;5.408;2023-08-17T04:56:19;2.53;;;1.40;;
80127;SDS011;69440;52.118;5.408;2023-08-17T04:58:45;6.55;;;1.80;;
80127;SDS011;69440;52.118;5.408;2023-08-17T05:01:12;5.63;;;1.92;;
80127;SDS011;69440;52.118;5.408;2023-08-17T05:03:38;4.95;;;1.50;;
80127;SDS011;69440;52.118;5.408;2023-08-17T05:06:05;4.70;;;1.60;;
80127;SDS011;69440;52.118;5.408;2023-08-17T05:08:31;7.07;;;1.45;;
80127;SDS011;69440;52.118;5.408;2023-08-17T05:10:58;6.60;;;1.58;;
80127;SDS011;69440;52.118;5.408;2023-08-17T05:13:24;3.72;;;1.50;;
80127;SDS011;69440;52.118;5.408;2023-08-17T05:15:51;3.90;;;1.50;;
80127;SDS011;69440;52.118;5.408;2023-08-17T05:18:17;5.47;;;1.58;;
80127;SDS011;69440;52.118;5.408;2023-08-17T05:20:44;4.75;;;1.38;;
80127;SDS011;69440;52.118;5.408;2023-08-17T05:23:10;4.43;;;1.42;;
80127;SDS011;69440;52.118;5.408;2023-08-17T05:25:37;5.93;;;1.58;;
80127;SDS011;69440;52.118;5.408;2023-08-17T05:28:03;3.55;;;1.30;;
80127;SDS011;69440;52.118;5.408;2023-08-17T05:30:30;2.83;;;1.48;;
80127;SDS011;69440;52.118;5.408;2023-08-17T05:32:56;3.05;;;1.60;;
80127;SDS011;69440;52.118;5.408;2023-08-17T05:35:23;4.10;;;1.60;;
80127;SDS011;69440;52.118;5.408;2023-08-17T05:37:50;3.97;;;1.38;;
80127;SDS011;69440;52.118;5.408;2023-08-17T05:40:17;4.30;;;1.60;;
80127;SDS011;69440;52.118;5.408;2023-08-17T05:42:43;7.32;;;1.67;;
80127;SDS011;69440;52.118;5.408;2023-08-17T05:45:10;3.80;;;1.65;;
80127;SDS011;69440;52.118;5.408;2023-08-17T05:47:37;6.10;;;1.60;;
80127;SDS011;69440;52.118;5.408;2023-08-17T05:50:03;5.47;;;1.48;;
80127;SDS011;69440;52.118;5.408;2023-08-17T05:52:31;3.33;;;1.25;;
80127;SDS011;69440;52.118;5.408;2023-08-17T05:54:58;8.18;;;1.65;;
80127;SDS011;69440;52.118;5.408;2023-08-17T05:57:24;3.60;;;1.58;;
80127;SDS011;69440;52.118;5.408;2023-08-17T05:59:52;4.18;;;1.40;;
80127;SDS011;69440;52.118;5.408;2023-08-17T06:02:18;4.95;;;1.30;;
80127;SDS011;69440;52.118;5.408;2023-08-17T06:04:46;2.88;;;1.38;;
80127;SDS011;69440;52.118;5.408;2023-08-17T06:07:13;4.15;;;1.55;;
80127;SDS011;69440;52.118;5.408;2023-08-17T06:09:40;2.72;;;1.50;;
80127;SDS011;69440;52.118;5.408;2023-08-17T06:12:06;5.07;;;2.00;;
80127;SDS011;69440;52.118;5.408;2023-08-17T06:14:33;5.03;;;1.60;;
80127;SDS011;69440;52.118;5.408;2023-08-17T06:17:00;3.25;;;1.50;;
80127;SDS011;69440;52.118;5.408;2023-08-17T06:19:26;2.50;;;1.23;;
80127;SDS011;69440;52.118;5.408;2023-08-17T06:21:53;6.07;;;1.65;;
80127;SDS011;69440;52.118;5.408;2023-08-17T06:24:19;4.90;;;1.73;;
80127;SDS011;69440;52.118;5.408;2023-08-17T06:26:46;9.05;;;1.95;;
80127;SDS011;69440;52.118;5.408;2023-08-17T06:29:12;4.30;;;1.70;;
80127;SDS011;69440;52.118;5.408;2023-08-17T06:31:39;7.47;;;1.75;;
80127;SDS011;69440;52.118;5.408;2023-08-17T06:34:05;4.47;;;1.60;;
80127;SDS011;69440;52.118;5.408;2023-08-17T06:36:32;5.35;;;2.10;;
80127;SDS011;69440;52.118;5.408;2023-08-17T06:38:59;4.28;;;1.50;;
80127;SDS011;69440;52.118;5.408;2023-08-17T06:41:25;6.18;;;1.80;;
80127;SDS011;69440;52.118;5.408;2023-08-17T06:43:52;4.25;;;1.70;;
80127;SDS011;69440;52.118;5.408;2023-08-17T06:46:19;5.60;;;1.77;;
80127;SDS011;69440;52.118;5.408;2023-08-17T06:48:46;6.60;;;2.08;;
80127;SDS011;69440;52.118;5.408;2023-08-17T06:51:12;3.65;;;1.70;;
80127;SDS011;69440;52.118;5.408;2023-08-17T06:53:38;7.68;;;1.75;;
80127;SDS011;69440;52.118;5.408;2023-08-17T06:56:06;6.00;;;1.70;;
80127;SDS011;69440;52.118;5.408;2023-08-17T06:58:33;4.22;;;1.65;;
80127;SDS011;69440;52.118;5.408;2023-08-17T07:00:59;4.38;;;2.00;;
80127;SDS011;69440;52.118;5.408;2023-08-17T07:03:26;4.93;;;2.10;;
80127;SDS011;69440;52.118;5.408;2023-08-17T07:05:53;7.55;;;2.30;;
80127;SDS011;69440;52.118;5.408;2023-08-17T07:08:19;4.38;;;1.77;;
80127;SDS011;69440;52.118;5.408;2023-08-17T07:10:46;4.95;;;1.52;;
80127;SDS011;69440;52.118;5.408;2023-08-17T07:13:12;3.40;;;1.50;;
80127;SDS011;69440;52.118;5.408;2023-08-17T07:15:39;5.68;;;1.65;;
80127;SDS011;69440;52.118;5.408;2023-08-17T07:18:05;6.65;;;1.80;;
80127;SDS011;69440;52.118;5.408;2023-08-17T07:20:32;8.00;;;2.00;;
80127;SDS011;69440;52.118;5.408;2023-08-17T07:22:58;5.28;;;1.80;;
80127;SDS011;69440;52.118;5.408;2023-08-17T07:25:25;6.05;;;1.65;;
80127;SDS011;69440;52.118;5.408;2023-08-17T07:27:51;3.42;;;1.63;;
80127;SDS011;69440;52.118;5.408;2023-08-17T07:30:18;3.72;;;2.10;;
80127;SDS011;69440;52.118;5.408;2023-08-17T07:32:44;4.32;;;1.70;;
80127;SDS011;69440;52.118;5.408;2023-08-17T07:35:11;4.13;;;1.83;;
80127;SDS011;69440;52.118;5.408;2023-08-17T07:37:37;6.20;;;1.98;;
80127;SDS011;69440;52.118;5.408;2023-08-17T07:40:04;4.97;;;1.70;;
80127;SDS011;69440;52.118;5.408;2023-08-17T07:42:31;5.65;;;1.60;;
80127;SDS011;69440;52.118;5.408;2023-08-17T07:44:58;4.55;;;2.10;;
80127;SDS011;69440;52.118;5.408;2023-08-17T07:47:24;5.65;;;1.70;;
80127;SDS011;69440;52.118;5.408;2023-08-17T07:49:52;6.18;;;1.70;;
80127;SDS011;69440;52.118;5.408;2023-08-17T07:52:18;4.95;;;1.45;;
80127;SDS011;69440;52.118;5.408;2023-08-17T07:54:45;5.85;;;1.67;;
80127;SDS011;69440;52.118;5.408;2023-08-17T07:57:11;5.75;;;2.08;;
80127;SDS011;69440;52.118;5.408;2023-08-17T07:59:38;5.30;;;1.67;;
80127;SDS011;69440;52.118;5.408;2023-08-17T08:02:05;6.88;;;1.67;;
80127;SDS011;69440;52.118;5.408;2023-08-17T08:04:31;5.13;;;1.63;;
80127;SDS011;69440;52.118;5.408;2023-08-17T08:06:58;4.18;;;1.80;;
80127;SDS011;69440;52.118;5.408;2023-08-17T08:09:27;4.95;;;2.00;;
80127;SDS011;69440;52.118;5.408;2023-08-17T08:11:54;5.97;;;1.52;;
80127;SDS011;69440;52.118;5.408;2023-08-17T08:14:20;3.05;;;1.50;;
80127;SDS011;69440;52.118;5.408;2023-08-17T08:16:47;3.17;;;1.50;;
80127;SDS011;69440;52.118;5.408;2023-08-17T08:19:13;4.22;;;1.50;;
80127;SDS011;69440;52.118;5.408;2023-08-17T08:21:40;3.83;;;1.60;;
80127;SDS011;69440;52.118;5.408;2023-08-17T08:24:06;7.18;;;1.48;;
80127;SDS011;69440;52.118;5.408;2023-08-17T08:26:43;5.38;;;1.80;;
80127;SDS011;69440;52.118;5.408;2023-08-17T08:29:09;4.22;;;1.80;;
80127;SDS011;69440;52.118;5.408;2023-08-17T08:31:36;4.00;;;1.60;;
80127;SDS011;69440;52.118;5.408;2023-08-17T08:34:02;4.53;;;1.30;;
80127;SDS011;69440;52.118;5.408;2023-08-17T08:36:29;3.47;;;2.03;;
80127;SDS011;69440;52.118;5.408;2023-08-17T08:38:55;4.40;;;1.80;;
80127;SDS011;69440;52.118;5.408;2023-08-17T08:41:22;5.72;;;2.08;;
80127;SDS011;69440;52.118;5.408;2023-08-17T08:43:52;5.32;;;1.58;;
80127;SDS011;69440;52.118;5.408;2023-08-17T08:46:21;5.13;;;1.80;;
80127;SDS011;69440;52.118;5.408;2023-08-17T08:48:52;6.32;;;2.00;;
80127;SDS011;69440;52.118;5.408;2023-08-17T08:51:27;4.20;;;1.52;;
80127;SDS011;69440;52.118;5.408;2023-08-17T08:54:00;8.63;;;3.35;;
80127;SDS011;69440;52.118;5.408;2023-08-17T08:56:31;7.68;;;1.80;;
80127;SDS011;69440;52.118;5.408;2023-08-17T08:59:01;5.30;;;1.88;;
80127;SDS011;69440;52.118;5.408;2023-08-17T09:01:32;5.68;;;2.90;;
80127;SDS011;69440;52.118;5.408;2023-08-17T09:04:00;4.80;;;2.17;;
80127;SDS011;69440;52.118;5.408;2023-08-17T09:06:27;4.85;;;2.33;;
80127;SDS011;69440;52.118;5.408;2023-08-17T09:08:57;5.68;;;1.80;;
80127;SDS011;69440;52.118;5.408;2023-08-17T09:11:29;7.43;;;2.08;;
80127;SDS011;69440;52.118;5.408;2023-08-17T09:14:00;4.78;;;1.67;;
80127;SDS011;69440;52.118;5.408;2023-08-17T09:16:27;6.88;;;1.80;;
80127;SDS011;69440;52.118;5.408;2023-08-17T09:18:54;4.10;;;1.63;;
80127;SDS011;69440;52.118;5.408;2023-08-17T10:10:29;4.05;;;1.88;;
80127;SDS011;69440;52.118;5.408;2023-08-17T10:47:37;8.43;;;2.20;;
80127;SDS011;69440;52.118;5.408;2023-08-17T10:53:51;7.15;;;2.08;;
80127;SDS011;69440;52.118;5.408;2023-08-17T10:56:18;6.50;;;2.95;;
80127;SDS011;69440;52.118;5.408;2023-08-17T10:58:45;7.20;;;1.95;;
80127;SDS011;69440;52.118;5.408;2023-08-17T11:01:11;4.78;;;2.00;;
80127;SDS011;69440;52.118;5.408;2023-08-17T11:03:41;6.95;;;2.00;;
80127;SDS011;69440;52.118;5.408;2023-08-17T11:06:15;3.60;;;1.92;;
80127;SDS011;69440;52.118;5.408;2023-08-17T11:08:53;8.32;;;2.35;;
80127;SDS011;69440;52.118;5.408;2023-08-17T11:11:22;4.68;;;2.10;;
80127;SDS011;69440;52.118;5.408;2023-08-17T11:13:49;6.22;;;1.90;;
80127;SDS011;69440;52.118;5.408;2023-08-17T11:16:23;7.00;;;2.28;;
80127;SDS011;69440;52.118;5.408;2023-08-17T11:18:50;5.95;;;2.78;;
80127;SDS011;69440;52.118;5.408;2023-08-17T11:21:17;8.15;;;2.50;;
80127;SDS011;69440;52.118;5.408;2023-08-17T11:23:45;8.35;;;2.80;;
80127;SDS011;69440;52.118;5.408;2023-08-17T11:26:15;6.47;;;2.72;;
80127;SDS011;69440;52.118;5.408;2023-08-17T11:28:42;10.07;;;2.42;;
80127;SDS011;69440;52.118;5.408;2023-08-17T11:31:11;8.50;;;3.20;;
80127;SDS011;69440;52.118;5.408;2023-08-17T11:33:40;8.82;;;2.80;;
80127;SDS011;69440;52.118;5.408;2023-08-17T11:36:07;5.97;;;2.60;;
80127;SDS011;69440;52.118;5.408;2023-08-17T11:38:35;5.93;;;2.92;;
80127;SDS011;69440;52.118;5.408;2023-08-17T11:41:07;8.10;;;2.83;;
80127;SDS011;69440;52.118;5.408;2023-08-17T11:43:43;7.10;;;2.63;;
80127;SDS011;69440;52.118;5.408;2023-08-17T11:46:11;4.85;;;2.50;;
80127;SDS011;69440;52.118;5.408;2023-08-17T11:48:38;5.50;;;2.30;;
80127;SDS011;69440;52.118;5.408;2023-08-17T11:51:04;5.57;;;2.20;;
80127;SDS011;69440;52.118;5.408;2023-08-17T11:53:35;7.53;;;2.80;;
80127;SDS011;69440;52.118;5.408;2023-08-17T11:58:41;6.80;;;2.50;;
80127;SDS011;69440;52.118;5.408;2023-08-17T12:01:10;6.60;;;2.33;;
80127;SDS011;69440;52.118;5.408;2023-08-17T12:03:38;7.03;;;2.60;;
80127;SDS011;69440;52.118;5.408;2023-08-17T12:06:05;8.15;;;2.90;;
80127;SDS011;69440;52.118;5.408;2023-08-17T12:08:33;10.48;;;2.70;;
80127;SDS011;69440;52.118;5.408;2023-08-17T12:11:00;8.23;;;2.53;;
80127;SDS011;69440;52.118;5.408;2023-08-17T12:13:33;4.43;;;2.42;;
80127;SDS011;69440;52.118;5.408;2023-08-17T12:16:01;8.15;;;2.67;;
80127;SDS011;69440;52.118;5.408;2023-08-17T12:18:28;7.72;;;2.75;;
80127;SDS011;69440;52.118;5.408;2023-08-17T12:20:55;7.35;;;2.47;;
80127;SDS011;69440;52.118;5.408;2023-08-17T12:23:24;4.45;;;2.30;;
80127;SDS011;69440;52.118;5.408;2023-08-17T12:25:54;7.95;;;2.70;;
80127;SDS011;69440;52.118;5.408;2023-08-17T12:28:21;7.20;;;2.42;;
80127;SDS011;69440;52.118;5.408;2023-08-17T12:30:56;5.07;;;2.42;;
80127;SDS011;69440;52.118;5.408;2023-08-17T12:33:24;7.63;;;2.30;;
80127;SDS011;69440;52.118;5.408;2023-08-17T12:35:50;7.25;;;2.67;;
80127;SDS011;69440;52.118;5.408;2023-08-17T12:38:17;6.10;;;2.13;;
80127;SDS011;69440;52.118;5.408;2023-08-17T12:40:43;6.57;;;2.22;;
80127;SDS011;69440;52.118;5.408;2023-08-17T12:43:10;5.20;;;2.50;;
80127;SDS011;69440;52.118;5.408;2023-08-17T12:45:40;6.57;;;2.25;;
80127;SDS011;69440;52.118;5.408;2023-08-17T12:48:07;7.65;;;2.80;;
80127;SDS011;69440;52.118;5.408;2023-08-17T13:04:59;5.07;;;2.45;;
80127;SDS011;69440;52.118;5.408;2023-08-17T13:07:25;6.20;;;2.35;;
80127;SDS011;69440;52.118;5.408;2023-08-17T13:09:55;5.38;;;2.40;;
80127;SDS011;69440;52.118;5.408;2023-08-17T13:12:47;3.58;;;2.40;;
80127;SDS011;69440;52.118;5.408;2023-08-17T13:15:25;5.05;;;2.40;;
80127;SDS011;69440;52.118;5.408;2023-08-17T13:18:21;4.88;;;1.98;;
80127;SDS011;69440;52.118;5.408;2023-08-17T13:21:41;4.43;;;2.30;;
80127;SDS011;69440;52.118;5.408;2023-08-17T13:32:34;4.85;;;2.22;;
80127;SDS011;69440;52.118;5.408;2023-08-17T13:35:40;5.68;;;3.08;;
80127;SDS011;69440;52.118;5.408;2023-08-17T13:39:04;4.93;;;2.55;;
80127;SDS011;69440;52.118;5.408;2023-08-17T13:51:20;5.38;;;2.85;;
80127;SDS011;69440;52.118;5.408;2023-08-17T13:53:52;4.78;;;2.38;;
80127;SDS011;69440;52.118;5.408;2023-08-17T13:56:37;4.85;;;2.63;;
80127;SDS011;69440;52.118;5.408;2023-08-17T13:59:41;4.75;;;2.65;;
80127;SDS011;69440;52.118;5.408;2023-08-17T14:02:29;6.50;;;2.90;;
80127;SDS011;69440;52.118;5.408;2023-08-17T14:05:06;5.07;;;2.72;;
80127;SDS011;69440;52.118;5.408;2023-08-17T14:07:51;4.93;;;2.42;;
80127;SDS011;69440;52.118;5.408;2023-08-17T14:10:47;5.53;;;2.55;;
80127;SDS011;69440;52.118;5.408;2023-08-17T14:13:49;6.03;;;2.90;;
80127;SDS011;69440;52.118;5.408;2023-08-17T14:16:18;4.45;;;2.75;;
80127;SDS011;69440;52.118;5.408;2023-08-17T14:18:45;4.90;;;2.65;;
80127;SDS011;69440;52.118;5.408;2023-08-17T14:29:16;5.47;;;2.85;;
80127;SDS011;69440;52.118;5.408;2023-08-17T14:42:30;8.20;;;2.83;;
80127;SDS011;69440;52.118;5.408;2023-08-17T14:45:06;4.47;;;3.00;;
80127;SDS011;69440;52.118;5.408;2023-08-17T14:47:34;5.45;;;3.15;;
80127;SDS011;69440;52.118;5.408;2023-08-17T14:52:57;5.15;;;2.85;;
80127;SDS011;69440;52.118;5.408;2023-08-17T14:55:24;6.38;;;3.20;;
80127;SDS011;69440;52.118;5.408;2023-08-17T14:57:52;7.68;;;3.33;;
80127;SDS011;69440;52.118;5.408;2023-08-17T15:00:18;7.25;;;3.10;;
80127;SDS011;69440;52.118;5.408;2023-08-17T15:02:45;6.53;;;2.97;;
80127;SDS011;69440;52.118;5.408;2023-08-17T15:05:11;6.82;;;3.60;;
80127;SDS011;69440;52.118;5.408;2023-08-17T15:07:38;5.97;;;3.17;;
80127;SDS011;69440;52.118;5.408;2023-08-17T15:10:05;6.43;;;3.30;;
80127;SDS011;69440;52.118;5.408;2023-08-17T15:12:40;5.50;;;3.38;;
80127;SDS011;69440;52.118;5.408;2023-08-17T15:15:23;4.55;;;3.03;;
80127;SDS011;69440;52.118;5.408;2023-08-17T15:21:38;7.07;;;3.60;;
80127;SDS011;69440;52.118;5.408;2023-08-17T15:24:25;5.20;;;3.17;;
80127;SDS011;69440;52.118;5.408;2023-08-17T15:26:54;6.97;;;3.33;;
80127;SDS011;69440;52.118;5.408;2023-08-17T15:29:22;9.23;;;4.00;;
80127;SDS011;69440;52.118;5.408;2023-08-17T15:31:49;5.93;;;3.83;;
80127;SDS011;69440;52.118;5.408;2023-08-17T15:34:15;7.93;;;3.65;;
80127;SDS011;69440;52.118;5.408;2023-08-17T15:36:42;8.45;;;4.03;;
80127;SDS011;69440;52.118;5.408;2023-08-17T15:39:08;7.57;;;4.35;;
80127;SDS011;69440;52.118;5.408;2023-08-17T15:41:35;6.70;;;3.88;;
80127;SDS011;69440;52.118;5.408;2023-08-17T15:44:01;6.38;;;3.88;;
80127;SDS011;69440;52.118;5.408;2023-08-17T15:46:28;6.50;;;4.20;;
80127;SDS011;69440;52.118;5.408;2023-08-17T15:48:56;9.23;;;4.20;;
80127;SDS011;69440;52.118;5.408;2023-08-17T15:51:22;7.35;;;3.70;;
80127;SDS011;69440;52.118;5.408;2023-08-17T15:53:49;6.63;;;3.78;;
80127;SDS011;69440;52.118;5.408;2023-08-17T15:56:16;6.13;;;4.00;;
80127;SDS011;69440;52.118;5.408;2023-08-17T15:58:42;6.32;;;3.88;;
80127;SDS011;69440;52.118;5.408;2023-08-17T16:01:09;6.00;;;3.80;;
80127;SDS011;69440;52.118;5.408;2023-08-17T16:03:36;6.97;;;4.05;;
80127;SDS011;69440;52.118;5.408;2023-08-17T16:06:03;7.50;;;3.97;;
80127;SDS011;69440;52.118;5.408;2023-08-17T16:08:30;6.97;;;4.18;;
80127;SDS011;69440;52.118;5.408;2023-08-17T16:11:14;7.72;;;3.85;;
80127;SDS011;69440;52.118;5.408;2023-08-17T16:13:40;6.57;;;4.50;;
80127;SDS011;69440;52.118;5.408;2023-08-17T16:16:11;8.43;;;4.22;;
80127;SDS011;69440;52.118;5.408;2023-08-17T16:18:38;7.95;;;4.20;;
80127;SDS011;69440;52.118;5.408;2023-08-17T16:21:05;7.75;;;4.15;;
80127;SDS011;69440;52.118;5.408;2023-08-17T16:23:39;8.55;;;4.25;;
80127;SDS011;69440;52.118;5.408;2023-08-17T16:26:07;7.25;;;4.50;;
80127;SDS011;69440;52.118;5.408;2023-08-17T16:28:34;7.43;;;4.40;;
80127;SDS011;69440;52.118;5.408;2023-08-17T16:31:00;8.35;;;4.10;;
80127;SDS011;69440;52.118;5.408;2023-08-17T16:33:30;7.78;;;4.60;;
80127;SDS011;69440;52.118;5.408;2023-08-17T16:35:57;8.55;;;4.90;;
80127;SDS011;69440;52.118;5.408;2023-08-17T16:38:24;6.53;;;4.43;;
80127;SDS011;69440;52.118;5.408;2023-08-17T16:40:50;8.10;;;4.82;;
80127;SDS011;69440;52.118;5.408;2023-08-17T16:43:17;8.65;;;5.05;;
80127;SDS011;69440;52.118;5.408;2023-08-17T16:45:46;10.15;;;5.00;;
80127;SDS011;69440;52.118;5.408;2023-08-17T16:48:12;8.75;;;5.22;;
80127;SDS011;69440;52.118;5.408;2023-08-17T16:50:39;6.97;;;4.68;;
80127;SDS011;69440;52.118;5.408;2023-08-17T16:53:06;6.82;;;4.80;;
80127;SDS011;69440;52.118;5.408;2023-08-17T16:55:32;8.55;;;5.03;;
80127;SDS011;69440;52.118;5.408;2023-08-17T16:58:00;7.38;;;4.82;;
80127;SDS011;69440;52.118;5.408;2023-08-17T17:00:27;7.80;;;5.38;;
80127;SDS011;69440;52.118;5.408;2023-08-17T17:02:56;6.97;;;4.72;;
80127;SDS011;69440;52.118;5.408;2023-08-17T17:05:25;9.43;;;5.22;;
80127;SDS011;69440;52.118;5.408;2023-08-17T17:07:53;9.90;;;5.30;;
80127;SDS011;69440;52.118;5.408;2023-08-17T17:10:23;8.18;;;4.78;;
80127;SDS011;69440;52.118;5.408;2023-08-17T17:12:50;6.50;;;4.63;;
80127;SDS011;69440;52.118;5.408;2023-08-17T17:15:16;7.53;;;5.10;;
80127;SDS011;69440;52.118;5.408;2023-08-17T17:17:45;7.63;;;5.15;;
80127;SDS011;69440;52.118;5.408;2023-08-17T17:20:12;7.18;;;5.30;;
80127;SDS011;69440;52.118;5.408;2023-08-17T17:22:39;7.20;;;5.07;;
80127;SDS011;69440;52.118;5.408;2023-08-17T17:25:06;6.55;;;4.65;;
80127;SDS011;69440;52.118;5.408;2023-08-17T17:27:33;7.88;;;5.15;;
80127;SDS011;69440;52.118;5.408;2023-08-17T17:30:00;8.40;;;5.30;;
80127;SDS011;69440;52.118;5.408;2023-08-17T17:32:27;8.63;;;6.13;;
80127;SDS011;69440;52.118;5.408;2023-08-17T17:34:53;8.88;;;5.68;;